sensor_id;sensor_type;location;lat;lon;timestamp;P1;durP1;ratioP1;P2;durP2;ratioP2
65418;SDS011;52027;50.658;14.004;2022-11-04T00:01:45;20.52;;;9.88;;
65418;SDS011;52027;50.658;14.004;2022-11-04T00:04:12;21.63;;;9.80;;
65418;SDS011;52027;50.658;14.004;2022-11-04T00:06:40;20.67;;;9.80;;
65418;SDS011;52027;50.658;14.004;2022-11-04T00:09:06;17.73;;;9.77;;
65418;SDS011;52027;50.658;14.004;2022-11-04T00:11:33;17.75;;;9.70;;
65418;SDS011;52027;50.658;14.004;2022-11-04T00:14:17;20.50;;;9.90;;
65418;SDS011;52027;50.658;14.004;2022-11-04T00:16:43;18.52;;;9.25;;
65418;SDS011;52027;50.658;14.004;2022-11-04T00:19:27;19.17;;;10.00;;
65418;SDS011;52027;50.658;14.004;2022-11-04T00:21:53;19.45;;;9.55;;
65418;SDS011;52027;50.658;14.004;2022-11-04T00:24:38;18.50;;;9.40;;
65418;SDS011;52027;50.658;14.004;2022-11-04T00:27:22;19.10;;;9.45;;
65418;SDS011;52027;50.658;14.004;2022-11-04T00:30:07;17.77;;;9.02;;
65418;SDS011;52027;50.658;14.004;2022-11-04T00:32:34;17.55;;;9.10;;
65418;SDS011;52027;50.658;14.004;2022-11-04T00:35:18;18.85;;;9.07;;
65418;SDS011;52027;50.658;14.004;2022-11-04T00:37:43;18.65;;;9.15;;
65418;SDS011;52027;50.658;14.004;2022-11-04T00:40:10;19.50;;;9.38;;
65418;SDS011;52027;50.658;14.004;2022-11-04T00:42:37;18.35;;;9.18;;
65418;SDS011;52027;50.658;14.004;2022-11-04T00:45:03;19.50;;;9.32;;
65418;SDS011;52027;50.658;14.004;2022-11-04T00:47:29;19.27;;;9.40;;
65418;SDS011;52027;50.658;14.004;2022-11-04T00:49:54;18.75;;;9.23;;
65418;SDS011;52027;50.658;14.004;2022-11-04T00:52:19;19.05;;;9.77;;
65418;SDS011;52027;50.658;14.004;2022-11-04T00:54:45;17.40;;;8.75;;
65418;SDS011;52027;50.658;14.004;2022-11-04T00:57:11;16.98;;;9.15;;
65418;SDS011;52027;50.658;14.004;2022-11-04T00:59:37;16.95;;;9.15;;
65418;SDS011;52027;50.658;14.004;2022-11-04T01:02:04;17.20;;;9.07;;
65418;SDS011;52027;50.658;14.004;2022-11-04T01:04:30;19.23;;;9.65;;
65418;SDS011;52027;50.658;14.004;2022-11-04T01:06:55;17.27;;;9.02;;
65418;SDS011;52027;50.658;14.004;2022-11-04T01:09:21;17.98;;;9.43;;
65418;SDS011;52027;50.658;14.004;2022-11-04T01:11:46;16.08;;;9.05;;
65418;SDS011;52027;50.658;14.004;2022-11-04T01:14:12;18.73;;;9.02;;
65418;SDS011;52027;50.658;14.004;2022-11-04T01:16:37;18.70;;;9.40;;
65418;SDS011;52027;50.658;14.004;2022-11-04T01:19:03;19.20;;;9.27;;
65418;SDS011;52027;50.658;14.004;2022-11-04T01:21:29;17.70;;;9.32;;
65418;SDS011;52027;50.658;14.004;2022-11-04T01:23:54;17.30;;;8.95;;
65418;SDS011;52027;50.658;14.004;2022-11-04T01:26:22;18.83;;;9.40;;
65418;SDS011;52027;50.658;14.004;2022-11-04T01:28:50;17.92;;;8.98;;
65418;SDS011;52027;50.658;14.004;2022-11-04T01:31:17;19.17;;;9.45;;
65418;SDS011;52027;50.658;14.004;2022-11-04T01:33:47;18.80;;;9.02;;
65418;SDS011;52027;50.658;14.004;2022-11-04T01:36:13;17.77;;;9.23;;
65418;SDS011;52027;50.658;14.004;2022-11-04T01:38:39;16.98;;;8.98;;
65418;SDS011;52027;50.658;14.004;2022-11-04T01:41:05;18.48;;;9.27;;
65418;SDS011;52027;50.658;14.004;2022-11-04T01:43:51;17.30;;;8.98;;
65418;SDS011;52027;50.658;14.004;2022-11-04T01:46:50;16.38;;;8.57;;
65418;SDS011;52027;50.658;14.004;2022-11-04T01:49:25;16.38;;;8.70;;
65418;SDS011;52027;50.658;14.004;2022-11-04T01:52:02;16.95;;;8.90;;
65418;SDS011;52027;50.658;14.004;2022-11-04T01:54:33;16.73;;;9.00;;
65418;SDS011;52027;50.658;14.004;2022-11-04T01:57:01;17.65;;;8.80;;
65418;SDS011;52027;50.658;14.004;2022-11-04T01:59:35;16.40;;;8.85;;
65418;SDS011;52027;50.658;14.004;2022-11-04T02:02:03;16.65;;;8.82;;
65418;SDS011;52027;50.658;14.004;2022-11-04T02:04:29;16.23;;;8.85;;
65418;SDS011;52027;50.658;14.004;2022-11-04T02:06:56;18.58;;;9.20;;
65418;SDS011;52027;50.658;14.004;2022-11-04T02:09:24;17.45;;;9.00;;
65418;SDS011;52027;50.658;14.004;2022-11-04T02:11:52;17.95;;;8.98;;
65418;SDS011;52027;50.658;14.004;2022-11-04T02:14:36;17.63;;;9.23;;
65418;SDS011;52027;50.658;14.004;2022-11-04T02:22:35;15.85;;;8.80;;
65418;SDS011;52027;50.658;14.004;2022-11-04T02:30:59;17.95;;;8.90;;
65418;SDS011;52027;50.658;14.004;2022-11-04T02:33:33;17.58;;;9.13;;
65418;SDS011;52027;50.658;14.004;2022-11-04T02:36:06;15.95;;;8.80;;
65418;SDS011;52027;50.658;14.004;2022-11-04T02:38:44;17.48;;;9.05;;
65418;SDS011;52027;50.658;14.004;2022-11-04T02:41:26;18.65;;;9.40;;
65418;SDS011;52027;50.658;14.004;2022-11-04T02:46:39;16.63;;;8.82;;
65418;SDS011;52027;50.658;14.004;2022-11-04T02:49:32;15.65;;;8.43;;
65418;SDS011;52027;50.658;14.004;2022-11-04T02:52:08;17.25;;;9.00;;
65418;SDS011;52027;50.658;14.004;2022-11-04T02:54:41;15.88;;;8.73;;
65418;SDS011;52027;50.658;14.004;2022-11-04T02:57:25;14.80;;;8.52;;
65418;SDS011;52027;50.658;14.004;2022-11-04T02:59:59;16.20;;;8.95;;
65418;SDS011;52027;50.658;14.004;2022-11-04T03:02:29;16.67;;;8.38;;
65418;SDS011;52027;50.658;14.004;2022-11-04T03:05:01;19.03;;;9.33;;
65418;SDS011;52027;50.658;14.004;2022-11-04T03:07:30;17.55;;;8.90;;
65418;SDS011;52027;50.658;14.004;2022-11-04T03:09:59;16.92;;;8.57;;
65418;SDS011;52027;50.658;14.004;2022-11-04T03:12:30;15.95;;;8.80;;
65418;SDS011;52027;50.658;14.004;2022-11-04T03:15:02;16.67;;;8.43;;
65418;SDS011;52027;50.658;14.004;2022-11-04T03:17:53;15.77;;;9.07;;
65418;SDS011;52027;50.658;14.004;2022-11-04T03:20:24;16.23;;;8.98;;
65418;SDS011;52027;50.658;14.004;2022-11-04T03:22:52;17.10;;;8.90;;
65418;SDS011;52027;50.658;14.004;2022-11-04T03:25:24;16.60;;;8.68;;
65418;SDS011;52027;50.658;14.004;2022-11-04T03:30:41;15.90;;;8.80;;
65418;SDS011;52027;50.658;14.004;2022-11-04T03:35:58;16.15;;;8.60;;
65418;SDS011;52027;50.658;14.004;2022-11-04T03:38:23;17.27;;;8.90;;
65418;SDS011;52027;50.658;14.004;2022-11-04T03:40:49;17.33;;;9.00;;
65418;SDS011;52027;50.658;14.004;2022-11-04T03:43:18;17.02;;;8.80;;
65418;SDS011;52027;50.658;14.004;2022-11-04T03:45:47;17.52;;;8.68;;
65418;SDS011;52027;50.658;14.004;2022-11-04T03:48:14;15.73;;;8.77;;
65418;SDS011;52027;50.658;14.004;2022-11-04T03:50:41;15.50;;;8.68;;
65418;SDS011;52027;50.658;14.004;2022-11-04T03:53:07;16.13;;;8.43;;
65418;SDS011;52027;50.658;14.004;2022-11-04T04:01:02;16.38;;;8.40;;
65418;SDS011;52027;50.658;14.004;2022-11-04T04:06:16;16.08;;;8.30;;
65418;SDS011;52027;50.658;14.004;2022-11-04T04:08:46;16.50;;;8.88;;
65418;SDS011;52027;50.658;14.004;2022-11-04T04:11:28;15.30;;;8.52;;
65418;SDS011;52027;50.658;14.004;2022-11-04T04:16:33;15.90;;;8.90;;
65418;SDS011;52027;50.658;14.004;2022-11-04T04:19:14;15.15;;;8.57;;
65418;SDS011;52027;50.658;14.004;2022-11-04T04:21:47;14.98;;;8.32;;
65418;SDS011;52027;50.658;14.004;2022-11-04T04:24:18;16.10;;;8.40;;
65418;SDS011;52027;50.658;14.004;2022-11-04T04:27:04;14.45;;;7.97;;
65418;SDS011;52027;50.658;14.004;2022-11-04T04:29:49;15.38;;;8.75;;
65418;SDS011;52027;50.658;14.004;2022-11-04T04:32:16;15.77;;;8.73;;
65418;SDS011;52027;50.658;14.004;2022-11-04T04:34:42;16.35;;;8.70;;
65418;SDS011;52027;50.658;14.004;2022-11-04T04:37:14;14.32;;;8.07;;
65418;SDS011;52027;50.658;14.004;2022-11-04T04:39:45;13.93;;;8.38;;
65418;SDS011;52027;50.658;14.004;2022-11-04T04:42:34;15.75;;;8.40;;
65418;SDS011;52027;50.658;14.004;2022-11-04T04:45:41;16.98;;;8.45;;
65418;SDS011;52027;50.658;14.004;2022-11-04T04:48:08;19.00;;;8.75;;
65418;SDS011;52027;50.658;14.004;2022-11-04T04:50:39;17.42;;;8.70;;
65418;SDS011;52027;50.658;14.004;2022-11-04T04:53:08;16.08;;;8.82;;
65418;SDS011;52027;50.658;14.004;2022-11-04T04:55:37;15.25;;;8.68;;
65418;SDS011;52027;50.658;14.004;2022-11-04T04:58:02;16.85;;;8.85;;
65418;SDS011;52027;50.658;14.004;2022-11-04T05:00:27;15.02;;;8.60;;
65418;SDS011;52027;50.658;14.004;2022-11-04T05:02:53;17.55;;;8.80;;
65418;SDS011;52027;50.658;14.004;2022-11-04T05:05:19;16.48;;;8.43;;
65418;SDS011;52027;50.658;14.004;2022-11-04T05:07:44;15.27;;;8.63;;
65418;SDS011;52027;50.658;14.004;2022-11-04T05:10:11;16.38;;;8.75;;
65418;SDS011;52027;50.658;14.004;2022-11-04T05:12:38;18.42;;;9.15;;
65418;SDS011;52027;50.658;14.004;2022-11-04T05:15:23;19.57;;;9.33;;
65418;SDS011;52027;50.658;14.004;2022-11-04T05:17:59;20.10;;;8.88;;
65418;SDS011;52027;50.658;14.004;2022-11-04T05:20:25;19.02;;;9.20;;
65418;SDS011;52027;50.658;14.004;2022-11-04T05:22:51;21.58;;;9.02;;
65418;SDS011;52027;50.658;14.004;2022-11-04T05:25:18;16.77;;;8.85;;
65418;SDS011;52027;50.658;14.004;2022-11-04T05:27:44;15.50;;;8.10;;
65418;SDS011;52027;50.658;14.004;2022-11-04T05:30:10;17.48;;;8.90;;
65418;SDS011;52027;50.658;14.004;2022-11-04T05:32:35;17.95;;;8.90;;
65418;SDS011;52027;50.658;14.004;2022-11-04T05:35:01;19.48;;;8.77;;
65418;SDS011;52027;50.658;14.004;2022-11-04T05:37:26;17.48;;;8.77;;
65418;SDS011;52027;50.658;14.004;2022-11-04T05:39:52;19.80;;;9.05;;
65418;SDS011;52027;50.658;14.004;2022-11-04T05:42:18;18.38;;;8.68;;
65418;SDS011;52027;50.658;14.004;2022-11-04T05:44:44;17.77;;;8.75;;
65418;SDS011;52027;50.658;14.004;2022-11-04T05:47:09;22.77;;;8.70;;
65418;SDS011;52027;50.658;14.004;2022-11-04T05:49:34;17.17;;;8.57;;
65418;SDS011;52027;50.658;14.004;2022-11-04T05:51:59;19.48;;;9.02;;
65418;SDS011;52027;50.658;14.004;2022-11-04T05:54:25;16.08;;;8.23;;
65418;SDS011;52027;50.658;14.004;2022-11-04T05:56:51;16.63;;;8.82;;
65418;SDS011;52027;50.658;14.004;2022-11-04T05:59:17;19.80;;;8.68;;
65418;SDS011;52027;50.658;14.004;2022-11-04T06:01:42;18.17;;;8.82;;
65418;SDS011;52027;50.658;14.004;2022-11-04T06:04:12;18.83;;;8.52;;
65418;SDS011;52027;50.658;14.004;2022-11-04T06:06:39;17.15;;;8.52;;
65418;SDS011;52027;50.658;14.004;2022-11-04T06:09:07;21.05;;;9.20;;
65418;SDS011;52027;50.658;14.004;2022-11-04T06:11:33;18.55;;;8.85;;
65418;SDS011;52027;50.658;14.004;2022-11-04T06:13:59;21.38;;;9.07;;
65418;SDS011;52027;50.658;14.004;2022-11-04T06:16:25;23.88;;;9.40;;
65418;SDS011;52027;50.658;14.004;2022-11-04T06:18:50;17.52;;;8.80;;
65418;SDS011;52027;50.658;14.004;2022-11-04T06:23:46;23.48;;;9.10;;
65418;SDS011;52027;50.658;14.004;2022-11-04T06:26:12;24.30;;;9.07;;
65418;SDS011;52027;50.658;14.004;2022-11-04T06:28:39;24.67;;;8.63;;
65418;SDS011;52027;50.658;14.004;2022-11-04T06:31:05;22.10;;;9.10;;
65418;SDS011;52027;50.658;14.004;2022-11-04T06:33:32;23.67;;;9.40;;
65418;SDS011;52027;50.658;14.004;2022-11-04T06:35:58;26.90;;;8.65;;
65418;SDS011;52027;50.658;14.004;2022-11-04T06:38:25;24.83;;;8.85;;
65418;SDS011;52027;50.658;14.004;2022-11-04T06:40:50;26.88;;;9.23;;
65418;SDS011;52027;50.658;14.004;2022-11-04T06:43:16;25.70;;;9.90;;
65418;SDS011;52027;50.658;14.004;2022-11-04T06:45:41;28.27;;;9.45;;
65418;SDS011;52027;50.658;14.004;2022-11-04T06:48:07;26.15;;;9.35;;
65418;SDS011;52027;50.658;14.004;2022-11-04T06:50:32;30.58;;;9.40;;
65418;SDS011;52027;50.658;14.004;2022-11-04T06:52:58;30.65;;;9.30;;
65418;SDS011;52027;50.658;14.004;2022-11-04T06:55:23;29.48;;;10.02;;
65418;SDS011;52027;50.658;14.004;2022-11-04T06:57:49;36.60;;;10.02;;
65418;SDS011;52027;50.658;14.004;2022-11-04T07:00:14;36.65;;;10.35;;
65418;SDS011;52027;50.658;14.004;2022-11-04T07:02:40;32.25;;;9.65;;
65418;SDS011;52027;50.658;14.004;2022-11-04T07:05:05;27.80;;;10.07;;
65418;SDS011;52027;50.658;14.004;2022-11-04T07:07:31;36.30;;;10.05;;
65418;SDS011;52027;50.658;14.004;2022-11-04T07:09:56;23.92;;;9.55;;
65418;SDS011;52027;50.658;14.004;2022-11-04T07:12:22;30.45;;;10.23;;
65418;SDS011;52027;50.658;14.004;2022-11-04T07:14:56;39.70;;;10.35;;
65418;SDS011;52027;50.658;14.004;2022-11-04T07:17:21;42.33;;;10.38;;
65418;SDS011;52027;50.658;14.004;2022-11-04T07:19:47;43.10;;;10.70;;
65418;SDS011;52027;50.658;14.004;2022-11-04T07:22:12;35.40;;;11.07;;
65418;SDS011;52027;50.658;14.004;2022-11-04T07:24:37;38.72;;;10.35;;
65418;SDS011;52027;50.658;14.004;2022-11-04T07:27:03;46.42;;;10.00;;
65418;SDS011;52027;50.658;14.004;2022-11-04T07:29:30;36.67;;;10.55;;
65418;SDS011;52027;50.658;14.004;2022-11-04T07:31:58;33.83;;;10.43;;
65418;SDS011;52027;50.658;14.004;2022-11-04T07:34:23;30.65;;;10.30;;
65418;SDS011;52027;50.658;14.004;2022-11-04T07:36:49;32.00;;;10.25;;
65418;SDS011;52027;50.658;14.004;2022-11-04T07:39:15;34.28;;;10.27;;
65418;SDS011;52027;50.658;14.004;2022-11-04T07:41:41;29.88;;;9.90;;
65418;SDS011;52027;50.658;14.004;2022-11-04T07:44:09;32.88;;;10.55;;
65418;SDS011;52027;50.658;14.004;2022-11-04T07:46:35;29.95;;;9.75;;
65418;SDS011;52027;50.658;14.004;2022-11-04T07:49:01;25.60;;;10.18;;
65418;SDS011;52027;50.658;14.004;2022-11-04T07:51:27;27.88;;;10.15;;
65418;SDS011;52027;50.658;14.004;2022-11-04T07:53:54;34.50;;;10.73;;
65418;SDS011;52027;50.658;14.004;2022-11-04T07:56:19;36.47;;;10.57;;
65418;SDS011;52027;50.658;14.004;2022-11-04T07:58:45;36.70;;;10.00;;
65418;SDS011;52027;50.658;14.004;2022-11-04T08:01:12;33.70;;;10.30;;
65418;SDS011;52027;50.658;14.004;2022-11-04T08:03:40;34.38;;;10.68;;
65418;SDS011;52027;50.658;14.004;2022-11-04T08:06:06;35.67;;;10.90;;
65418;SDS011;52027;50.658;14.004;2022-11-04T08:08:33;44.70;;;11.68;;
65418;SDS011;52027;50.658;14.004;2022-11-04T08:11:00;41.58;;;11.10;;
65418;SDS011;52027;50.658;14.004;2022-11-04T08:13:29;43.50;;;12.00;;
65418;SDS011;52027;50.658;14.004;2022-11-04T08:15:56;47.33;;;11.38;;
65418;SDS011;52027;50.658;14.004;2022-11-04T08:18:25;45.20;;;12.00;;
65418;SDS011;52027;50.658;14.004;2022-11-04T08:20:51;40.20;;;11.15;;
65418;SDS011;52027;50.658;14.004;2022-11-04T08:23:16;42.05;;;11.15;;
65418;SDS011;52027;50.658;14.004;2022-11-04T08:25:42;39.92;;;11.02;;
65418;SDS011;52027;50.658;14.004;2022-11-04T08:28:08;36.97;;;11.68;;
65418;SDS011;52027;50.658;14.004;2022-11-04T08:30:40;35.20;;;10.98;;
65418;SDS011;52027;50.658;14.004;2022-11-04T08:33:05;35.88;;;11.90;;
65418;SDS011;52027;50.658;14.004;2022-11-04T08:35:31;42.55;;;11.57;;
65418;SDS011;52027;50.658;14.004;2022-11-04T08:37:56;37.55;;;11.45;;
65418;SDS011;52027;50.658;14.004;2022-11-04T08:40:21;39.75;;;12.35;;
65418;SDS011;52027;50.658;14.004;2022-11-04T08:42:48;39.28;;;11.07;;
65418;SDS011;52027;50.658;14.004;2022-11-04T08:45:13;43.97;;;11.50;;
65418;SDS011;52027;50.658;14.004;2022-11-04T08:47:39;36.33;;;11.45;;
65418;SDS011;52027;50.658;14.004;2022-11-04T08:50:04;37.13;;;11.23;;
65418;SDS011;52027;50.658;14.004;2022-11-04T08:52:30;39.03;;;11.30;;
65418;SDS011;52027;50.658;14.004;2022-11-04T08:54:55;28.50;;;11.55;;
65418;SDS011;52027;50.658;14.004;2022-11-04T08:57:20;30.67;;;10.95;;
65418;SDS011;52027;50.658;14.004;2022-11-04T08:59:46;29.58;;;11.20;;
65418;SDS011;52027;50.658;14.004;2022-11-04T09:02:13;32.25;;;11.50;;
65418;SDS011;52027;50.658;14.004;2022-11-04T09:04:40;34.42;;;11.75;;
65418;SDS011;52027;50.658;14.004;2022-11-04T09:07:06;37.92;;;11.80;;
65418;SDS011;52027;50.658;14.004;2022-11-04T09:09:32;41.95;;;12.00;;
65418;SDS011;52027;50.658;14.004;2022-11-04T09:11:57;36.85;;;11.70;;
65418;SDS011;52027;50.658;14.004;2022-11-04T09:14:23;35.03;;;11.65;;
65418;SDS011;52027;50.658;14.004;2022-11-04T09:16:48;28.00;;;11.52;;
65418;SDS011;52027;50.658;14.004;2022-11-04T09:19:14;35.72;;;11.38;;
65418;SDS011;52027;50.658;14.004;2022-11-04T09:21:40;33.25;;;10.73;;
65418;SDS011;52027;50.658;14.004;2022-11-04T09:24:06;32.67;;;11.02;;
65418;SDS011;52027;50.658;14.004;2022-11-04T09:26:32;36.83;;;11.45;;
65418;SDS011;52027;50.658;14.004;2022-11-04T09:28:58;33.83;;;11.25;;
65418;SDS011;52027;50.658;14.004;2022-11-04T09:31:24;33.67;;;11.38;;
65418;SDS011;52027;50.658;14.004;2022-11-04T09:33:52;33.53;;;11.52;;
65418;SDS011;52027;50.658;14.004;2022-11-04T09:36:19;35.60;;;11.98;;
65418;SDS011;52027;50.658;14.004;2022-11-04T09:38:45;30.70;;;11.07;;
65418;SDS011;52027;50.658;14.004;2022-11-04T09:41:17;38.40;;;12.23;;
65418;SDS011;52027;50.658;14.004;2022-11-04T09:46:48;41.90;;;12.15;;
65418;SDS011;52027;50.658;14.004;2022-11-04T09:49:15;38.70;;;12.13;;
65418;SDS011;52027;50.658;14.004;2022-11-04T09:51:41;36.60;;;11.48;;
65418;SDS011;52027;50.658;14.004;2022-11-04T09:54:33;36.88;;;11.27;;
65418;SDS011;52027;50.658;14.004;2022-11-04T09:57:17;34.90;;;10.85;;
65418;SDS011;52027;50.658;14.004;2022-11-04T09:59:43;32.22;;;11.88;;
65418;SDS011;52027;50.658;14.004;2022-11-04T10:07:53;40.25;;;12.20;;
65418;SDS011;52027;50.658;14.004;2022-11-04T10:10:43;39.00;;;11.38;;
65418;SDS011;52027;50.658;14.004;2022-11-04T10:21:48;40.45;;;11.95;;
65418;SDS011;52027;50.658;14.004;2022-11-04T10:27:13;37.10;;;11.68;;
65418;SDS011;52027;50.658;14.004;2022-11-04T10:32:17;35.85;;;12.07;;
65418;SDS011;52027;50.658;14.004;2022-11-04T10:34:51;32.65;;;11.48;;
65418;SDS011;52027;50.658;14.004;2022-11-04T10:37:23;34.55;;;11.35;;
65418;SDS011;52027;50.658;14.004;2022-11-04T10:39:50;39.05;;;12.48;;
65418;SDS011;52027;50.658;14.004;2022-11-04T10:42:20;33.78;;;11.70;;
65418;SDS011;52027;50.658;14.004;2022-11-04T10:44:47;38.58;;;11.90;;
65418;SDS011;52027;50.658;14.004;2022-11-04T10:47:21;47.47;;;11.50;;
65418;SDS011;52027;50.658;14.004;2022-11-04T10:52:35;32.75;;;11.05;;
65418;SDS011;52027;50.658;14.004;2022-11-04T10:55:02;39.83;;;11.02;;
65418;SDS011;52027;50.658;14.004;2022-11-04T10:57:35;34.80;;;12.40;;
65418;SDS011;52027;50.658;14.004;2022-11-04T11:00:02;41.67;;;11.73;;
65418;SDS011;52027;50.658;14.004;2022-11-04T11:07:56;40.20;;;11.27;;
65418;SDS011;52027;50.658;14.004;2022-11-04T11:10:29;35.60;;;11.30;;
65418;SDS011;52027;50.658;14.004;2022-11-04T11:15:33;34.35;;;11.85;;
65418;SDS011;52027;50.658;14.004;2022-11-04T11:18:15;32.13;;;11.00;;
65418;SDS011;52027;50.658;14.004;2022-11-04T11:20:45;37.92;;;11.68;;
65418;SDS011;52027;50.658;14.004;2022-11-04T11:25:58;36.70;;;11.02;;
65418;SDS011;52027;50.658;14.004;2022-11-04T11:28:33;40.50;;;11.93;;
65418;SDS011;52027;50.658;14.004;2022-11-04T11:31:04;33.33;;;10.80;;
65418;SDS011;52027;50.658;14.004;2022-11-04T11:33:36;44.30;;;11.27;;
65418;SDS011;52027;50.658;14.004;2022-11-04T11:36:07;35.75;;;11.30;;
65418;SDS011;52027;50.658;14.004;2022-11-04T11:38:50;41.50;;;11.80;;
65418;SDS011;52027;50.658;14.004;2022-11-04T11:41:19;43.97;;;11.70;;
65418;SDS011;52027;50.658;14.004;2022-11-04T11:43:54;39.72;;;12.40;;
65418;SDS011;52027;50.658;14.004;2022-11-04T11:46:27;37.63;;;11.02;;
65418;SDS011;52027;50.658;14.004;2022-11-04T11:48:59;34.00;;;10.88;;
65418;SDS011;52027;50.658;14.004;2022-11-04T11:51:30;31.42;;;11.27;;
65418;SDS011;52027;50.658;14.004;2022-11-04T11:56:54;36.10;;;11.20;;
65418;SDS011;52027;50.658;14.004;2022-11-04T12:04:44;37.35;;;11.88;;
65418;SDS011;52027;50.658;14.004;2022-11-04T12:10:49;46.15;;;11.25;;
65418;SDS011;52027;50.658;14.004;2022-11-04T12:15:54;42.97;;;12.33;;
65418;SDS011;52027;50.658;14.004;2022-11-04T12:21:14;38.17;;;11.27;;
65418;SDS011;52027;50.658;14.004;2022-11-04T12:23:59;34.08;;;11.55;;
65418;SDS011;52027;50.658;14.004;2022-11-04T12:41:35;40.10;;;10.65;;
65418;SDS011;52027;50.658;14.004;2022-11-04T12:49:30;32.05;;;10.65;;
65418;SDS011;52027;50.658;14.004;2022-11-04T13:00:17;36.60;;;10.82;;
65418;SDS011;52027;50.658;14.004;2022-11-04T13:02:57;30.33;;;10.57;;
65418;SDS011;52027;50.658;14.004;2022-11-04T13:05:43;28.42;;;10.30;;
65418;SDS011;52027;50.658;14.004;2022-11-04T13:08:53;31.90;;;10.35;;
65418;SDS011;52027;50.658;14.004;2022-11-04T13:11:29;33.15;;;10.45;;
65418;SDS011;52027;50.658;14.004;2022-11-04T13:14:05;32.20;;;10.77;;
65418;SDS011;52027;50.658;14.004;2022-11-04T13:16:41;34.70;;;11.10;;
65418;SDS011;52027;50.658;14.004;2022-11-04T13:19:23;27.10;;;10.27;;
65418;SDS011;52027;50.658;14.004;2022-11-04T13:21:55;29.67;;;10.80;;
65418;SDS011;52027;50.658;14.004;2022-11-04T13:24:34;29.95;;;10.88;;
65418;SDS011;52027;50.658;14.004;2022-11-04T13:27:04;35.88;;;10.48;;
65418;SDS011;52027;50.658;14.004;2022-11-04T13:29:42;35.28;;;11.20;;
65418;SDS011;52027;50.658;14.004;2022-11-04T13:37:36;36.75;;;10.88;;
65418;SDS011;52027;50.658;14.004;2022-11-04T13:45:53;33.78;;;10.43;;
65418;SDS011;52027;50.658;14.004;2022-11-04T13:48:27;40.92;;;11.60;;
65418;SDS011;52027;50.658;14.004;2022-11-04T13:51:04;45.60;;;11.68;;
65418;SDS011;52027;50.658;14.004;2022-11-04T13:56:09;32.75;;;11.15;;
65418;SDS011;52027;50.658;14.004;2022-11-04T13:59:26;38.40;;;10.93;;
65418;SDS011;52027;50.658;14.004;2022-11-04T14:04:49;44.63;;;10.75;;
65418;SDS011;52027;50.658;14.004;2022-11-04T14:07:15;41.08;;;10.40;;
65418;SDS011;52027;50.658;14.004;2022-11-04T14:14:35;38.17;;;11.23;;
65418;SDS011;52027;50.658;14.004;2022-11-04T14:17:02;33.55;;;11.32;;
65418;SDS011;52027;50.658;14.004;2022-11-04T14:22:21;36.97;;;11.38;;
65418;SDS011;52027;50.658;14.004;2022-11-04T14:24:56;34.58;;;11.05;;
65418;SDS011;52027;50.658;14.004;2022-11-04T14:27:37;39.05;;;11.05;;
65418;SDS011;52027;50.658;14.004;2022-11-04T14:30:04;35.30;;;10.95;;
65418;SDS011;52027;50.658;14.004;2022-11-04T14:32:34;39.67;;;11.30;;
65418;SDS011;52027;50.658;14.004;2022-11-04T14:35:04;40.53;;;11.57;;
65418;SDS011;52027;50.658;14.004;2022-11-04T14:37:34;35.47;;;10.60;;
65418;SDS011;52027;50.658;14.004;2022-11-04T14:40:02;29.98;;;9.70;;
65418;SDS011;52027;50.658;14.004;2022-11-04T14:42:41;30.73;;;9.60;;
65418;SDS011;52027;50.658;14.004;2022-11-04T14:45:07;26.90;;;9.50;;
65418;SDS011;52027;50.658;14.004;2022-11-04T14:48:13;32.75;;;9.50;;
65418;SDS011;52027;50.658;14.004;2022-11-04T14:50:42;30.40;;;8.45;;
65418;SDS011;52027;50.658;14.004;2022-11-04T14:53:12;23.85;;;8.27;;
65418;SDS011;52027;50.658;14.004;2022-11-04T14:55:47;33.20;;;9.70;;
65418;SDS011;52027;50.658;14.004;2022-11-04T14:58:30;34.50;;;9.90;;
65418;SDS011;52027;50.658;14.004;2022-11-04T15:00:57;36.75;;;10.63;;
65418;SDS011;52027;50.658;14.004;2022-11-04T15:03:25;33.13;;;9.75;;
65418;SDS011;52027;50.658;14.004;2022-11-04T15:06:01;49.40;;;10.90;;
65418;SDS011;52027;50.658;14.004;2022-11-04T15:08:30;41.00;;;10.77;;
65418;SDS011;52027;50.658;14.004;2022-11-04T15:11:03;37.13;;;9.93;;
65418;SDS011;52027;50.658;14.004;2022-11-04T15:13:32;37.33;;;10.65;;
65418;SDS011;52027;50.658;14.004;2022-11-04T15:15:58;37.65;;;10.23;;
65418;SDS011;52027;50.658;14.004;2022-11-04T15:18:28;30.63;;;9.98;;
65418;SDS011;52027;50.658;14.004;2022-11-04T15:20:57;33.38;;;10.10;;
65418;SDS011;52027;50.658;14.004;2022-11-04T15:23:32;34.42;;;10.35;;
65418;SDS011;52027;50.658;14.004;2022-11-04T15:26:01;36.20;;;11.32;;
65418;SDS011;52027;50.658;14.004;2022-11-04T15:28:29;41.50;;;10.10;;
65418;SDS011;52027;50.658;14.004;2022-11-04T15:31:06;36.55;;;9.95;;
65418;SDS011;52027;50.658;14.004;2022-11-04T15:33:37;35.30;;;10.32;;
65418;SDS011;52027;50.658;14.004;2022-11-04T15:36:05;32.72;;;10.20;;
65418;SDS011;52027;50.658;14.004;2022-11-04T15:38:36;28.92;;;9.75;;
65418;SDS011;52027;50.658;14.004;2022-11-04T15:41:08;28.42;;;9.93;;
65418;SDS011;52027;50.658;14.004;2022-11-04T15:43:52;32.85;;;10.90;;
65418;SDS011;52027;50.658;14.004;2022-11-04T15:46:18;32.40;;;10.45;;
65418;SDS011;52027;50.658;14.004;2022-11-04T15:48:58;35.50;;;10.35;;
65418;SDS011;52027;50.658;14.004;2022-11-04T15:51:35;33.42;;;10.93;;
65418;SDS011;52027;50.658;14.004;2022-11-04T15:54:04;29.45;;;10.18;;
65418;SDS011;52027;50.658;14.004;2022-11-04T15:56:43;30.88;;;10.07;;
65418;SDS011;52027;50.658;14.004;2022-11-04T15:59:16;28.10;;;10.52;;
65418;SDS011;52027;50.658;14.004;2022-11-04T16:01:48;35.53;;;10.23;;
65418;SDS011;52027;50.658;14.004;2022-11-04T16:04:15;28.35;;;9.80;;
65418;SDS011;52027;50.658;14.004;2022-11-04T16:06:44;30.05;;;10.23;;
65418;SDS011;52027;50.658;14.004;2022-11-04T16:11:37;32.90;;;10.40;;
65418;SDS011;52027;50.658;14.004;2022-11-04T16:16:48;28.67;;;9.93;;
65418;SDS011;52027;50.658;14.004;2022-11-04T16:19:16;33.50;;;10.32;;
65418;SDS011;52027;50.658;14.004;2022-11-04T16:21:44;27.80;;;9.93;;
65418;SDS011;52027;50.658;14.004;2022-11-04T16:24:44;28.00;;;9.63;;
65418;SDS011;52027;50.658;14.004;2022-11-04T16:27:05;22.73;;;9.95;;
65418;SDS011;52027;50.658;14.004;2022-11-04T16:29:33;30.20;;;10.13;;
65418;SDS011;52027;50.658;14.004;2022-11-04T16:34:43;24.92;;;9.27;;
65418;SDS011;52027;50.658;14.004;2022-11-04T16:37:13;25.15;;;9.50;;
65418;SDS011;52027;50.658;14.004;2022-11-04T16:39:38;28.17;;;9.63;;
65418;SDS011;52027;50.658;14.004;2022-11-04T16:42:04;31.45;;;10.43;;
65418;SDS011;52027;50.658;14.004;2022-11-04T16:44:30;27.58;;;9.52;;
65418;SDS011;52027;50.658;14.004;2022-11-04T16:46:56;30.90;;;9.80;;
65418;SDS011;52027;50.658;14.004;2022-11-04T16:49:23;27.20;;;9.70;;
65418;SDS011;52027;50.658;14.004;2022-11-04T16:51:53;28.63;;;10.10;;
65418;SDS011;52027;50.658;14.004;2022-11-04T16:54:19;23.90;;;9.45;;
65418;SDS011;52027;50.658;14.004;2022-11-04T16:56:45;24.27;;;9.80;;
65418;SDS011;52027;50.658;14.004;2022-11-04T16:59:11;27.23;;;9.90;;
65418;SDS011;52027;50.658;14.004;2022-11-04T17:01:36;28.08;;;9.77;;